Hovedside
METAR-TAF:

METAR-TAF

Lufthavner :

Chengdu, Kina

Chengdu Shuangliu internasjonale lufthavn

breddegrad: 30-40N, lengdegrad: 104-01E, høyde over havet: 508 m

Gjeldene værobservasjon

Denne rapporten ble laget for 31 minutter siden, klokken 18:00 UTC
Vind 6 kt fra Nord-nordøst, skiftende mellom Nord-nordvest og Nordøst
Temperatur 15°C
Luftfuktighet 100%
Trykk 1017 hPa
Sikt 10 km eller mer
Få skyer i en høyde av 700 ft
Spredte skyer i en høyde av 900 ft
Brutte skyer i en høyde av 2600 ft
lette regnbyger

METAR: ZUUU 241800Z 02003MPS 330V050 9999 -SHRA FEW007 SCT009 BKN026 15/15 Q1017 NOSIG

Tid: 02:31 (18:31 UTC)

Varsel

Denne rapporten ble laget for 3 timer og 36 minutter siden, klokken 14:55 UTC
Varsel gyldig fra 24. klokken 18 UTC til 25. klokken 18 UTC
Vind 6 kt fra Nord-nordøst
Sikt: 7000 m
Spredte skyer i en høyde av 3000 ft

TAF: ZUUU 241455Z 2418/2518 02003MPS 7000 SCT030 TX21/2507Z TN16/2421Z

Værobservasjoner og værvarsel for over 4000 flyplasser (METAR- og TAF-rapporter).

Tilgjengelige stasjoner er representert av de røde og gule prikkene på kartet.

Hold musepekeren over prikken for å se navnet på stasjonen.

Klikk så for å se værobservasjoner og -varsler.

For å forandre kartet kan du klikke på den grønne knappen med svart kryss for å zoome inn, på den grønne knappen med strek for å zoome ut, eller på de grønne pilene for å se tilstøtende kart.


METAR-TAF: